sensor_id;sensor_type;location;lat;lon;timestamp;temperature;humidity
42135;DHT22;28312;43.460;11.810;2022-10-18T00:02:38;12.30;62.40
42135;DHT22;28312;43.460;11.810;2022-10-18T00:06:42;12.30;62.50
42135;DHT22;28312;43.460;11.810;2022-10-18T00:10:45;12.30;62.40
42135;DHT22;28312;43.460;11.810;2022-10-18T00:14:50;12.20;62.50
42135;DHT22;28312;43.460;11.810;2022-10-18T00:18:54;12.20;62.60
42135;DHT22;28312;43.460;11.810;2022-10-18T00:22:58;12.20;62.60
42135;DHT22;28312;43.460;11.810;2022-10-18T00:27:01;12.20;62.60
42135;DHT22;28312;43.460;11.810;2022-10-18T00:35:15;12.20;62.70
42135;DHT22;28312;43.460;11.810;2022-10-18T00:39:21;12.20;62.70
42135;DHT22;28312;43.460;11.810;2022-10-18T00:43:25;12.20;62.70
42135;DHT22;28312;43.460;11.810;2022-10-18T00:47:29;12.10;62.80
42135;DHT22;28312;43.460;11.810;2022-10-18T00:51:59;12.10;63.00
42135;DHT22;28312;43.460;11.810;2022-10-18T00:55:59;12.00;63.00
42135;DHT22;28312;43.460;11.810;2022-10-18T01:00:04;12.00;63.00
42135;DHT22;28312;43.460;11.810;2022-10-18T01:04:16;12.00;63.00
42135;DHT22;28312;43.460;11.810;2022-10-18T01:08:55;11.90;63.00
42135;DHT22;28312;43.460;11.810;2022-10-18T01:17:58;11.90;63.10
42135;DHT22;28312;43.460;11.810;2022-10-18T01:22:30;11.90;63.10
42135;DHT22;28312;43.460;11.810;2022-10-18T01:26:51;11.80;63.10
42135;DHT22;28312;43.460;11.810;2022-10-18T01:31:00;11.80;63.10
42135;DHT22;28312;43.460;11.810;2022-10-18T01:35:10;11.70;63.10
42135;DHT22;28312;43.460;11.810;2022-10-18T01:39:21;11.70;63.30
42135;DHT22;28312;43.460;11.810;2022-10-18T01:43:26;11.70;63.40
42135;DHT22;28312;43.460;11.810;2022-10-18T01:47:31;11.70;63.30
42135;DHT22;28312;43.460;11.810;2022-10-18T01:51:36;11.70;63.30
42135;DHT22;28312;43.460;11.810;2022-10-18T01:55:43;11.70;63.30
42135;DHT22;28312;43.460;11.810;2022-10-18T02:08:39;11.50;63.70
42135;DHT22;28312;43.460;11.810;2022-10-18T02:12:45;11.50;63.70
42135;DHT22;28312;43.460;11.810;2022-10-18T02:16:55;11.40;63.60
42135;DHT22;28312;43.460;11.810;2022-10-18T02:21:01;11.30;63.90
42135;DHT22;28312;43.460;11.810;2022-10-18T02:25:14;11.30;64.00
42135;DHT22;28312;43.460;11.810;2022-10-18T02:29:18;11.30;64.10
42135;DHT22;28312;43.460;11.810;2022-10-18T02:37:47;11.20;64.10
42135;DHT22;28312;43.460;11.810;2022-10-18T02:41:52;11.20;64.20
42135;DHT22;28312;43.460;11.810;2022-10-18T02:45:56;11.20;64.30
42135;DHT22;28312;43.460;11.810;2022-10-18T02:50:00;11.20;64.30
42135;DHT22;28312;43.460;11.810;2022-10-18T02:54:04;11.20;64.30
42135;DHT22;28312;43.460;11.810;2022-10-18T02:58:08;11.20;64.30
42135;DHT22;28312;43.460;11.810;2022-10-18T03:02:12;11.20;64.40
42135;DHT22;28312;43.460;11.810;2022-10-18T03:06:16;11.10;64.40
42135;DHT22;28312;43.460;11.810;2022-10-18T03:10:19;11.10;64.40
42135;DHT22;28312;43.460;11.810;2022-10-18T03:14:23;11.10;64.50
42135;DHT22;28312;43.460;11.810;2022-10-18T03:18:27;11.00;64.60
42135;DHT22;28312;43.460;11.810;2022-10-18T03:22:30;11.10;64.70
42135;DHT22;28312;43.460;11.810;2022-10-18T03:26:34;11.10;64.60
42135;DHT22;28312;43.460;11.810;2022-10-18T03:30:37;11.10;64.70
42135;DHT22;28312;43.460;11.810;2022-10-18T03:34:41;11.10;64.70
42135;DHT22;28312;43.460;11.810;2022-10-18T03:38:45;11.00;64.60
42135;DHT22;28312;43.460;11.810;2022-10-18T03:42:48;11.00;64.60
42135;DHT22;28312;43.460;11.810;2022-10-18T03:46:52;11.00;64.60
42135;DHT22;28312;43.460;11.810;2022-10-18T03:50:56;11.00;64.70
42135;DHT22;28312;43.460;11.810;2022-10-18T03:55:00;10.90;64.60
42135;DHT22;28312;43.460;11.810;2022-10-18T03:59:03;10.90;64.70
42135;DHT22;28312;43.460;11.810;2022-10-18T04:03:07;10.90;64.70
42135;DHT22;28312;43.460;11.810;2022-10-18T04:07:11;10.80;64.60
42135;DHT22;28312;43.460;11.810;2022-10-18T04:11:15;10.70;64.80
42135;DHT22;28312;43.460;11.810;2022-10-18T04:15:19;10.70;64.90
42135;DHT22;28312;43.460;11.810;2022-10-18T04:19:24;10.70;64.80
42135;DHT22;28312;43.460;11.810;2022-10-18T04:23:28;10.70;64.80
42135;DHT22;28312;43.460;11.810;2022-10-18T04:27:34;10.70;64.80
42135;DHT22;28312;43.460;11.810;2022-10-18T04:31:38;10.70;64.80
42135;DHT22;28312;43.460;11.810;2022-10-18T04:35:42;10.50;64.80
42135;DHT22;28312;43.460;11.810;2022-10-18T04:39:47;10.50;65.10
42135;DHT22;28312;43.460;11.810;2022-10-18T04:43:55;10.50;65.10
42135;DHT22;28312;43.460;11.810;2022-10-18T04:47:59;10.50;64.90
42135;DHT22;28312;43.460;11.810;2022-10-18T04:52:03;10.50;64.90
42135;DHT22;28312;43.460;11.810;2022-10-18T04:56:07;10.50;65.10
42135;DHT22;28312;43.460;11.810;2022-10-18T05:00:12;10.50;65.10
42135;DHT22;28312;43.460;11.810;2022-10-18T05:04:15;10.40;65.10
42135;DHT22;28312;43.460;11.810;2022-10-18T05:08:19;10.40;65.10
42135;DHT22;28312;43.460;11.810;2022-10-18T05:12:23;10.40;65.10
42135;DHT22;28312;43.460;11.810;2022-10-18T05:16:26;10.40;65.40
42135;DHT22;28312;43.460;11.810;2022-10-18T05:20:30;10.50;65.70
42135;DHT22;28312;43.460;11.810;2022-10-18T05:24:35;10.50;65.70
42135;DHT22;28312;43.460;11.810;2022-10-18T05:28:39;10.60;65.50
42135;DHT22;28312;43.460;11.810;2022-10-18T05:32:43;10.60;65.60
42135;DHT22;28312;43.460;11.810;2022-10-18T05:36:46;10.60;65.70
42135;DHT22;28312;43.460;11.810;2022-10-18T05:40:52;10.70;65.70
42135;DHT22;28312;43.460;11.810;2022-10-18T05:44:57;10.70;65.90
42135;DHT22;28312;43.460;11.810;2022-10-18T05:49:01;10.80;66.20
42135;DHT22;28312;43.460;11.810;2022-10-18T05:53:05;11.00;66.30
42135;DHT22;28312;43.460;11.810;2022-10-18T05:57:20;11.20;66.40
42135;DHT22;28312;43.460;11.810;2022-10-18T06:01:24;11.30;66.40
42135;DHT22;28312;43.460;11.810;2022-10-18T06:05:27;11.40;66.40
42135;DHT22;28312;43.460;11.810;2022-10-18T06:09:31;11.60;66.40
42135;DHT22;28312;43.460;11.810;2022-10-18T06:13:39;11.70;66.40
42135;DHT22;28312;43.460;11.810;2022-10-18T06:17:43;11.80;66.50
42135;DHT22;28312;43.460;11.810;2022-10-18T06:21:47;11.90;66.40
42135;DHT22;28312;43.460;11.810;2022-10-18T06:25:50;12.00;66.40
42135;DHT22;28312;43.460;11.810;2022-10-18T06:29:56;12.10;66.30
42135;DHT22;28312;43.460;11.810;2022-10-18T06:34:00;12.20;66.30
42135;DHT22;28312;43.460;11.810;2022-10-18T06:38:04;12.30;66.40
42135;DHT22;28312;43.460;11.810;2022-10-18T06:42:08;12.50;66.50
42135;DHT22;28312;43.460;11.810;2022-10-18T06:46:13;12.70;66.50
42135;DHT22;28312;43.460;11.810;2022-10-18T06:50:16;12.90;66.50
42135;DHT22;28312;43.460;11.810;2022-10-18T06:54:20;13.10;66.50
42135;DHT22;28312;43.460;11.810;2022-10-18T06:58:24;13.30;66.60
42135;DHT22;28312;43.460;11.810;2022-10-18T07:02:28;13.60;66.60
42135;DHT22;28312;43.460;11.810;2022-10-18T07:06:32;13.80;66.60
42135;DHT22;28312;43.460;11.810;2022-10-18T07:10:36;14.10;66.70
42135;DHT22;28312;43.460;11.810;2022-10-18T07:14:40;14.40;66.80
42135;DHT22;28312;43.460;11.810;2022-10-18T07:18:46;14.70;66.70
42135;DHT22;28312;43.460;11.810;2022-10-18T07:22:55;15.00;66.50
42135;DHT22;28312;43.460;11.810;2022-10-18T07:26:59;15.40;66.40
42135;DHT22;28312;43.460;11.810;2022-10-18T07:31:06;15.80;66.20
42135;DHT22;28312;43.460;11.810;2022-10-18T07:35:10;16.20;66.20
42135;DHT22;28312;43.460;11.810;2022-10-18T07:39:19;16.70;66.30
42135;DHT22;28312;43.460;11.810;2022-10-18T07:43:22;17.30;66.60
42135;DHT22;28312;43.460;11.810;2022-10-18T07:47:26;18.20;66.50
42135;DHT22;28312;43.460;11.810;2022-10-18T07:51:34;19.20;66.00
42135;DHT22;28312;43.460;11.810;2022-10-18T07:55:38;20.30;65.10
42135;DHT22;28312;43.460;11.810;2022-10-18T07:59:42;21.40;64.10
42135;DHT22;28312;43.460;11.810;2022-10-18T08:03:49;22.30;63.30
42135;DHT22;28312;43.460;11.810;2022-10-18T08:07:53;23.20;62.60
42135;DHT22;28312;43.460;11.810;2022-10-18T08:11:57;24.10;61.50
42135;DHT22;28312;43.460;11.810;2022-10-18T08:16:12;25.10;60.50
42135;DHT22;28312;43.460;11.810;2022-10-18T08:20:16;26.10;59.30
42135;DHT22;28312;43.460;11.810;2022-10-18T08:24:33;27.00;57.80
42135;DHT22;28312;43.460;11.810;2022-10-18T08:28:37;27.50;57.30
42135;DHT22;28312;43.460;11.810;2022-10-18T08:32:40;28.00;56.70
42135;DHT22;28312;43.460;11.810;2022-10-18T08:36:45;28.30;56.10
42135;DHT22;28312;43.460;11.810;2022-10-18T08:40:49;28.50;56.10
42135;DHT22;28312;43.460;11.810;2022-10-18T08:44:54;28.70;55.70
42135;DHT22;28312;43.460;11.810;2022-10-18T08:48:58;29.10;55.20
42135;DHT22;28312;43.460;11.810;2022-10-18T08:53:34;29.10;55.10
42135;DHT22;28312;43.460;11.810;2022-10-18T08:57:41;29.10;55.00
42135;DHT22;28312;43.460;11.810;2022-10-18T09:02:02;29.20;54.90
42135;DHT22;28312;43.460;11.810;2022-10-18T09:06:34;29.40;54.70
42135;DHT22;28312;43.460;11.810;2022-10-18T09:19:57;29.70;54.30
42135;DHT22;28312;43.460;11.810;2022-10-18T09:33:03;29.40;54.40
42135;DHT22;28312;43.460;11.810;2022-10-18T09:37:12;29.60;54.30
42135;DHT22;28312;43.460;11.810;2022-10-18T09:41:33;29.60;54.30
42135;DHT22;28312;43.460;11.810;2022-10-18T09:45:42;29.70;53.80
42135;DHT22;28312;43.460;11.810;2022-10-18T09:49:51;29.30;54.00
42135;DHT22;28312;43.460;11.810;2022-10-18T09:58:17;28.90;54.60
42135;DHT22;28312;43.460;11.810;2022-10-18T10:02:24;29.00;54.90
42135;DHT22;28312;43.460;11.810;2022-10-18T10:06:30;29.40;54.90
42135;DHT22;28312;43.460;11.810;2022-10-18T10:10:34;29.90;54.60
42135;DHT22;28312;43.460;11.810;2022-10-18T10:14:44;30.30;54.20
42135;DHT22;28312;43.460;11.810;2022-10-18T10:18:51;30.20;53.60
42135;DHT22;28312;43.460;11.810;2022-10-18T10:23:08;30.10;53.70
42135;DHT22;28312;43.460;11.810;2022-10-18T10:27:17;30.10;54.00
42135;DHT22;28312;43.460;11.810;2022-10-18T10:31:26;30.40;53.50
42135;DHT22;28312;43.460;11.810;2022-10-18T10:35:40;30.20;53.00
42135;DHT22;28312;43.460;11.810;2022-10-18T10:40:12;29.80;53.10
42135;DHT22;28312;43.460;11.810;2022-10-18T10:44:34;29.60;53.50
42135;DHT22;28312;43.460;11.810;2022-10-18T10:48:44;29.70;53.70
42135;DHT22;28312;43.460;11.810;2022-10-18T10:57:55;29.90;54.10
42135;DHT22;28312;43.460;11.810;2022-10-18T11:02:30;30.20;53.30
42135;DHT22;28312;43.460;11.810;2022-10-18T11:06:51;30.10;53.50
42135;DHT22;28312;43.460;11.810;2022-10-18T11:11:25;30.20;53.60
42135;DHT22;28312;43.460;11.810;2022-10-18T11:20:02;30.50;53.80
42135;DHT22;28312;43.460;11.810;2022-10-18T11:24:15;31.00;53.20
42135;DHT22;28312;43.460;11.810;2022-10-18T11:28:47;30.90;52.70
42135;DHT22;28312;43.460;11.810;2022-10-18T11:37:21;30.10;53.30
42135;DHT22;28312;43.460;11.810;2022-10-18T11:41:37;30.10;53.60
42135;DHT22;28312;43.460;11.810;2022-10-18T11:54:31;30.60;53.30
42135;DHT22;28312;43.460;11.810;2022-10-18T12:07:11;31.10;52.90
42135;DHT22;28312;43.460;11.810;2022-10-18T12:11:23;31.00;52.70
42135;DHT22;28312;43.460;11.810;2022-10-18T12:15:30;30.80;52.80
42135;DHT22;28312;43.460;11.810;2022-10-18T12:19:38;31.00;53.20
42135;DHT22;28312;43.460;11.810;2022-10-18T12:23:52;31.10;52.60
42135;DHT22;28312;43.460;11.810;2022-10-18T12:32:32;31.00;52.90
42135;DHT22;28312;43.460;11.810;2022-10-18T12:37:01;31.10;53.10
42135;DHT22;28312;43.460;11.810;2022-10-18T12:41:29;31.00;52.80
42135;DHT22;28312;43.460;11.810;2022-10-18T12:45:34;30.90;52.70
42135;DHT22;28312;43.460;11.810;2022-10-18T12:50:00;31.00;52.80
42135;DHT22;28312;43.460;11.810;2022-10-18T12:54:10;31.00;53.10
42135;DHT22;28312;43.460;11.810;2022-10-18T13:02:24;30.90;52.40
42135;DHT22;28312;43.460;11.810;2022-10-18T13:33:42;30.20;53.70
42135;DHT22;28312;43.460;11.810;2022-10-18T13:37:59;30.40;53.80
42135;DHT22;28312;43.460;11.810;2022-10-18T13:42:19;30.70;53.60
42135;DHT22;28312;43.460;11.810;2022-10-18T13:50:40;31.20;52.10
42135;DHT22;28312;43.460;11.810;2022-10-18T13:59:44;31.10;52.10
42135;DHT22;28312;43.460;11.810;2022-10-18T14:12:44;31.10;51.70
42135;DHT22;28312;43.460;11.810;2022-10-18T14:21:23;31.20;51.60
42135;DHT22;28312;43.460;11.810;2022-10-18T14:25:35;31.30;51.20
42135;DHT22;28312;43.460;11.810;2022-10-18T14:29:40;31.20;51.20
42135;DHT22;28312;43.460;11.810;2022-10-18T14:34:02;31.10;50.90
42135;DHT22;28312;43.460;11.810;2022-10-18T14:38:12;31.00;51.20
42135;DHT22;28312;43.460;11.810;2022-10-18T14:42:21;31.00;51.10
42135;DHT22;28312;43.460;11.810;2022-10-18T14:46:26;30.80;51.20
42135;DHT22;28312;43.460;11.810;2022-10-18T14:50:33;30.80;51.00
42135;DHT22;28312;43.460;11.810;2022-10-18T14:54:37;30.70;50.90
42135;DHT22;28312;43.460;11.810;2022-10-18T14:58:41;30.60;51.00
42135;DHT22;28312;43.460;11.810;2022-10-18T15:02:45;30.60;51.10
42135;DHT22;28312;43.460;11.810;2022-10-18T15:06:50;30.50;51.10
42135;DHT22;28312;43.460;11.810;2022-10-18T15:10:53;30.40;51.00
42135;DHT22;28312;43.460;11.810;2022-10-18T15:15:00;30.10;51.10
42135;DHT22;28312;43.460;11.810;2022-10-18T15:19:22;29.90;51.10
42135;DHT22;28312;43.460;11.810;2022-10-18T15:23:28;29.60;51.20
42135;DHT22;28312;43.460;11.810;2022-10-18T15:27:37;29.30;51.20
42135;DHT22;28312;43.460;11.810;2022-10-18T15:31:42;29.00;51.20
42135;DHT22;28312;43.460;11.810;2022-10-18T15:35:46;28.70;51.10
42135;DHT22;28312;43.460;11.810;2022-10-18T15:44:31;28.00;51.40
42135;DHT22;28312;43.460;11.810;2022-10-18T15:48:38;27.60;51.50
42135;DHT22;28312;43.460;11.810;2022-10-18T15:52:42;27.20;51.60
42135;DHT22;28312;43.460;11.810;2022-10-18T15:56:46;27.00;51.70
42135;DHT22;28312;43.460;11.810;2022-10-18T16:00:51;26.60;51.80
42135;DHT22;28312;43.460;11.810;2022-10-18T16:05:00;26.30;52.00
42135;DHT22;28312;43.460;11.810;2022-10-18T16:09:04;25.90;52.10
42135;DHT22;28312;43.460;11.810;2022-10-18T16:13:08;25.60;52.30
42135;DHT22;28312;43.460;11.810;2022-10-18T16:17:11;25.20;52.60
42135;DHT22;28312;43.460;11.810;2022-10-18T16:21:24;24.90;52.70
42135;DHT22;28312;43.460;11.810;2022-10-18T16:25:28;24.50;52.90
42135;DHT22;28312;43.460;11.810;2022-10-18T16:29:33;24.20;53.00
42135;DHT22;28312;43.460;11.810;2022-10-18T16:33:36;23.80;53.20
42135;DHT22;28312;43.460;11.810;2022-10-18T16:37:40;23.50;53.40
42135;DHT22;28312;43.460;11.810;2022-10-18T16:41:44;23.10;53.70
42135;DHT22;28312;43.460;11.810;2022-10-18T16:45:50;22.80;53.90
42135;DHT22;28312;43.460;11.810;2022-10-18T16:49:54;22.60;54.10
42135;DHT22;28312;43.460;11.810;2022-10-18T16:53:58;22.20;54.30
42135;DHT22;28312;43.460;11.810;2022-10-18T16:58:01;21.90;54.80
42135;DHT22;28312;43.460;11.810;2022-10-18T17:02:05;21.50;55.10
42135;DHT22;28312;43.460;11.810;2022-10-18T17:06:15;21.20;55.60
42135;DHT22;28312;43.460;11.810;2022-10-18T17:10:23;20.90;55.40
42135;DHT22;28312;43.460;11.810;2022-10-18T17:14:30;20.80;55.50
42135;DHT22;28312;43.460;11.810;2022-10-18T17:18:36;20.70;55.40
42135;DHT22;28312;43.460;11.810;2022-10-18T17:22:41;20.60;55.50
42135;DHT22;28312;43.460;11.810;2022-10-18T17:26:44;20.40;55.70
42135;DHT22;28312;43.460;11.810;2022-10-18T17:30:48;20.10;56.00
42135;DHT22;28312;43.460;11.810;2022-10-18T17:34:52;19.80;56.30
42135;DHT22;28312;43.460;11.810;2022-10-18T17:38:56;19.70;56.40
42135;DHT22;28312;43.460;11.810;2022-10-18T17:42:59;19.60;56.30
42135;DHT22;28312;43.460;11.810;2022-10-18T17:47:03;19.30;56.50
42135;DHT22;28312;43.460;11.810;2022-10-18T17:51:08;19.10;56.90
42135;DHT22;28312;43.460;11.810;2022-10-18T17:55:14;18.90;57.10
42135;DHT22;28312;43.460;11.810;2022-10-18T17:59:17;18.70;57.20
42135;DHT22;28312;43.460;11.810;2022-10-18T18:03:21;18.60;57.40
42135;DHT22;28312;43.460;11.810;2022-10-18T18:07:24;18.30;57.70
42135;DHT22;28312;43.460;11.810;2022-10-18T18:11:32;18.20;57.80
42135;DHT22;28312;43.460;11.810;2022-10-18T18:15:35;18.00;57.90
42135;DHT22;28312;43.460;11.810;2022-10-18T18:19:39;17.90;58.10
42135;DHT22;28312;43.460;11.810;2022-10-18T18:23:44;17.70;58.30
42135;DHT22;28312;43.460;11.810;2022-10-18T18:27:48;17.60;58.60
42135;DHT22;28312;43.460;11.810;2022-10-18T18:31:52;17.60;58.90
42135;DHT22;28312;43.460;11.810;2022-10-18T18:35:57;17.50;58.90
42135;DHT22;28312;43.460;11.810;2022-10-18T18:40:01;17.40;59.00
42135;DHT22;28312;43.460;11.810;2022-10-18T18:44:05;17.20;59.10
42135;DHT22;28312;43.460;11.810;2022-10-18T18:48:08;17.00;59.40
42135;DHT22;28312;43.460;11.810;2022-10-18T18:52:12;16.80;59.70
42135;DHT22;28312;43.460;11.810;2022-10-18T18:56:19;16.70;59.90
42135;DHT22;28312;43.460;11.810;2022-10-18T19:00:28;16.60;60.10
42135;DHT22;28312;43.460;11.810;2022-10-18T19:04:32;16.60;60.10
42135;DHT22;28312;43.460;11.810;2022-10-18T19:08:39;16.50;60.10
42135;DHT22;28312;43.460;11.810;2022-10-18T19:12:42;16.40;60.10
42135;DHT22;28312;43.460;11.810;2022-10-18T19:16:47;16.20;60.40
42135;DHT22;28312;43.460;11.810;2022-10-18T19:20:51;16.20;60.40
42135;DHT22;28312;43.460;11.810;2022-10-18T19:24:55;16.20;60.40
42135;DHT22;28312;43.460;11.810;2022-10-18T19:29:16;16.00;60.60
42135;DHT22;28312;43.460;11.810;2022-10-18T19:33:20;15.80;61.00
42135;DHT22;28312;43.460;11.810;2022-10-18T19:37:44;15.80;60.90
42135;DHT22;28312;43.460;11.810;2022-10-18T19:41:49;15.70;61.00
42135;DHT22;28312;43.460;11.810;2022-10-18T19:45:54;15.70;61.20
42135;DHT22;28312;43.460;11.810;2022-10-18T19:50:01;15.60;61.20
42135;DHT22;28312;43.460;11.810;2022-10-18T19:54:05;15.50;61.40
42135;DHT22;28312;43.460;11.810;2022-10-18T19:58:09;15.40;61.40
42135;DHT22;28312;43.460;11.810;2022-10-18T20:02:13;15.30;61.60
42135;DHT22;28312;43.460;11.810;2022-10-18T20:06:19;15.20;61.70
42135;DHT22;28312;43.460;11.810;2022-10-18T20:10:23;15.20;61.80
42135;DHT22;28312;43.460;11.810;2022-10-18T20:14:27;15.20;61.70
42135;DHT22;28312;43.460;11.810;2022-10-18T20:18:30;15.20;61.70
42135;DHT22;28312;43.460;11.810;2022-10-18T20:22:34;15.20;61.70
42135;DHT22;28312;43.460;11.810;2022-10-18T20:26:38;15.10;61.90
42135;DHT22;28312;43.460;11.810;2022-10-18T20:30:42;15.00;61.80
42135;DHT22;28312;43.460;11.810;2022-10-18T20:34:46;14.90;61.80
42135;DHT22;28312;43.460;11.810;2022-10-18T20:38:49;14.80;62.20
42135;DHT22;28312;43.460;11.810;2022-10-18T20:42:53;14.70;62.30
42135;DHT22;28312;43.460;11.810;2022-10-18T20:46:56;14.70;62.50
42135;DHT22;28312;43.460;11.810;2022-10-18T20:51:05;14.60;62.60
42135;DHT22;28312;43.460;11.810;2022-10-18T20:55:09;14.60;62.80
42135;DHT22;28312;43.460;11.810;2022-10-18T20:59:13;14.60;62.90
42135;DHT22;28312;43.460;11.810;2022-10-18T21:03:17;14.60;62.70
42135;DHT22;28312;43.460;11.810;2022-10-18T21:07:20;14.60;62.70
42135;DHT22;28312;43.460;11.810;2022-10-18T21:11:25;14.50;62.70
42135;DHT22;28312;43.460;11.810;2022-10-18T21:15:29;14.50;62.80
42135;DHT22;28312;43.460;11.810;2022-10-18T21:19:35;14.50;62.60
42135;DHT22;28312;43.460;11.810;2022-10-18T21:23:38;14.40;62.60
42135;DHT22;28312;43.460;11.810;2022-10-18T21:27:42;14.30;62.60
42135;DHT22;28312;43.460;11.810;2022-10-18T21:31:47;14.20;62.90
42135;DHT22;28312;43.460;11.810;2022-10-18T21:35:51;14.10;62.90
42135;DHT22;28312;43.460;11.810;2022-10-18T21:39:55;14.00;63.10
42135;DHT22;28312;43.460;11.810;2022-10-18T21:43:58;13.90;63.20
42135;DHT22;28312;43.460;11.810;2022-10-18T21:48:03;13.90;63.10
42135;DHT22;28312;43.460;11.810;2022-10-18T21:52:06;13.90;62.90
42135;DHT22;28312;43.460;11.810;2022-10-18T21:56:12;13.90;62.80
42135;DHT22;28312;43.460;11.810;2022-10-18T22:00:18;13.90;62.80
42135;DHT22;28312;43.460;11.810;2022-10-18T22:04:22;13.80;62.70
42135;DHT22;28312;43.460;11.810;2022-10-18T22:08:27;13.70;62.90
42135;DHT22;28312;43.460;11.810;2022-10-18T22:12:30;13.70;63.00
42135;DHT22;28312;43.460;11.810;2022-10-18T22:16:36;13.70;63.10
42135;DHT22;28312;43.460;11.810;2022-10-18T22:20:40;13.60;63.10
42135;DHT22;28312;43.460;11.810;2022-10-18T22:24:44;13.50;63.10
42135;DHT22;28312;43.460;11.810;2022-10-18T22:28:54;13.50;63.20
42135;DHT22;28312;43.460;11.810;2022-10-18T22:32:58;13.50;63.30
42135;DHT22;28312;43.460;11.810;2022-10-18T22:37:01;13.40;63.30
42135;DHT22;28312;43.460;11.810;2022-10-18T22:41:06;13.30;63.60
42135;DHT22;28312;43.460;11.810;2022-10-18T22:45:10;13.20;63.80
42135;DHT22;28312;43.460;11.810;2022-10-18T22:49:14;13.20;63.80
42135;DHT22;28312;43.460;11.810;2022-10-18T22:53:17;13.10;63.90
42135;DHT22;28312;43.460;11.810;2022-10-18T22:57:21;13.00;64.00
42135;DHT22;28312;43.460;11.810;2022-10-18T23:01:26;12.90;64.10
42135;DHT22;28312;43.460;11.810;2022-10-18T23:05:29;12.80;64.30
42135;DHT22;28312;43.460;11.810;2022-10-18T23:09:39;12.80;64.60
42135;DHT22;28312;43.460;11.810;2022-10-18T23:13:47;12.70;64.50
42135;DHT22;28312;43.460;11.810;2022-10-18T23:17:51;12.70;64.50
42135;DHT22;28312;43.460;11.810;2022-10-18T23:21:56;12.70;64.50
42135;DHT22;28312;43.460;11.810;2022-10-18T23:26:14;12.70;64.40
42135;DHT22;28312;43.460;11.810;2022-10-18T23:30:18;12.50;64.70
42135;DHT22;28312;43.460;11.810;2022-10-18T23:34:22;12.50;64.80
42135;DHT22;28312;43.460;11.810;2022-10-18T23:38:25;12.50;64.80
42135;DHT22;28312;43.460;11.810;2022-10-18T23:42:30;12.60;64.70
42135;DHT22;28312;43.460;11.810;2022-10-18T23:46:34;12.50;64.60
42135;DHT22;28312;43.460;11.810;2022-10-18T23:50:37;12.50;64.70
42135;DHT22;28312;43.460;11.810;2022-10-18T23:54:41;12.40;64.80
42135;DHT22;28312;43.460;11.810;2022-10-18T23:58:49;12.30;64.80
